sensor_id;sensor_type;location;lat;lon;timestamp;pressure;altitude;pressure_sealevel;temperature;humidity
21623;BME280;10973;46.706;12.340;2022-07-06T00:06:29;87913.44;;;16.63;52.33
21623;BME280;10973;46.706;12.340;2022-07-06T00:08:57;87913.06;;;16.65;52.39
21623;BME280;10973;46.706;12.340;2022-07-06T00:11:25;87913.06;;;16.65;52.47
21623;BME280;10973;46.706;12.340;2022-07-06T00:22:39;87904.84;;;16.41;52.31
21623;BME280;10973;46.706;12.340;2022-07-06T00:25:07;87902.13;;;16.49;51.89
21623;BME280;10973;46.706;12.340;2022-07-06T00:27:34;87904.78;;;16.49;52.28
21623;BME280;10973;46.706;12.340;2022-07-06T00:34:11;87904.50;;;16.36;51.98
21623;BME280;10973;46.706;12.340;2022-07-06T00:36:39;87908.69;;;16.37;52.22
21623;BME280;10973;46.706;12.340;2022-07-06T00:43:03;87908.72;;;16.30;52.77
21623;BME280;10973;46.706;12.340;2022-07-06T00:45:30;87906.84;;;16.27;52.71
21623;BME280;10973;46.706;12.340;2022-07-06T00:47:58;87911.03;;;16.24;52.46
21623;BME280;10973;46.706;12.340;2022-07-06T00:50:26;87916.34;;;16.24;52.66
21623;BME280;10973;46.706;12.340;2022-07-06T00:52:59;87919.81;;;16.21;52.64
21623;BME280;10973;46.706;12.340;2022-07-06T00:55:32;87912.22;;;16.16;52.79
21623;BME280;10973;46.706;12.340;2022-07-06T00:58:02;87917.19;;;16.14;52.99
21623;BME280;10973;46.706;12.340;2022-07-06T01:00:31;87916.06;;;16.12;52.78
21623;BME280;10973;46.706;12.340;2022-07-06T01:07:08;87912.34;;;15.95;52.99
21623;BME280;10973;46.706;12.340;2022-07-06T01:09:36;87913.88;;;15.96;53.01
21623;BME280;10973;46.706;12.340;2022-07-06T01:12:04;87914.63;;;15.97;53.04
21623;BME280;10973;46.706;12.340;2022-07-06T01:14:32;87911.22;;;15.96;53.10
21623;BME280;10973;46.706;12.340;2022-07-06T01:21:14;87903.28;;;15.86;52.87
21623;BME280;10973;46.706;12.340;2022-07-06T01:23:47;87902.19;;;15.83;53.11
21623;BME280;10973;46.706;12.340;2022-07-06T01:26:20;87894.97;;;15.80;53.19
21623;BME280;10973;46.706;12.340;2022-07-06T01:28:52;87896.47;;;15.81;53.36
21623;BME280;10973;46.706;12.340;2022-07-06T01:35:19;87893.16;;;15.66;53.46
21623;BME280;10973;46.706;12.340;2022-07-06T01:37:46;87889.75;;;15.62;53.31
21623;BME280;10973;46.706;12.340;2022-07-06T01:40:13;87895.81;;;15.66;53.16
21623;BME280;10973;46.706;12.340;2022-07-06T01:42:41;87894.31;;;15.58;53.04
21623;BME280;10973;46.706;12.340;2022-07-06T01:45:09;87892.44;;;15.55;53.22
21623;BME280;10973;46.706;12.340;2022-07-06T01:47:36;87893.97;;;15.53;52.72
21623;BME280;10973;46.706;12.340;2022-07-06T01:50:08;87891.31;;;15.49;52.82
21623;BME280;10973;46.706;12.340;2022-07-06T01:52:36;87885.66;;;15.44;53.19
21623;BME280;10973;46.706;12.340;2022-07-06T01:59:13;87883.41;;;15.28;54.02
21623;BME280;10973;46.706;12.340;2022-07-06T02:01:40;87890.22;;;15.29;53.84
21623;BME280;10973;46.706;12.340;2022-07-06T02:08:07;87889.50;;;15.18;53.55
21623;BME280;10973;46.706;12.340;2022-07-06T02:10:34;87892.91;;;15.19;53.93
21623;BME280;10973;46.706;12.340;2022-07-06T02:13:02;87885.72;;;15.16;53.65
21623;BME280;10973;46.706;12.340;2022-07-06T02:15:30;87891.41;;;15.14;53.50
21623;BME280;10973;46.706;12.340;2022-07-06T02:17:57;87895.56;;;15.15;53.31
21623;BME280;10973;46.706;12.340;2022-07-06T02:28:45;87903.22;;;14.88;54.43
21623;BME280;10973;46.706;12.340;2022-07-06T02:31:23;87903.22;;;14.88;54.35
21623;BME280;10973;46.706;12.340;2022-07-06T02:33:50;87899.06;;;14.87;54.57
21623;BME280;10973;46.706;12.340;2022-07-06T02:40:28;87900.22;;;14.76;54.59
21623;BME280;10973;46.706;12.340;2022-07-06T02:46:55;87913.47;;;14.72;54.25
21623;BME280;10973;46.706;12.340;2022-07-06T02:49:22;87917.28;;;14.75;54.44
21623;BME280;10973;46.706;12.340;2022-07-06T02:55:59;87915.38;;;14.68;54.57
21623;BME280;10973;46.706;12.340;2022-07-06T02:58:26;87913.09;;;14.70;54.93
21623;BME280;10973;46.706;12.340;2022-07-06T03:00:54;87911.59;;;14.73;54.60
21623;BME280;10973;46.706;12.340;2022-07-06T03:03:21;87915.00;;;14.73;54.66
21623;BME280;10973;46.706;12.340;2022-07-06T03:09:59;87921.84;;;14.60;54.55
21623;BME280;10973;46.706;12.340;2022-07-06T03:12:26;87924.09;;;14.62;54.42
21623;BME280;10973;46.706;12.340;2022-07-06T03:14:54;87915.38;;;14.61;54.57
21623;BME280;10973;46.706;12.340;2022-07-06T03:17:21;87918.41;;;14.63;54.41
21623;BME280;10973;46.706;12.340;2022-07-06T03:24:54;87915.75;;;14.56;54.46
21623;BME280;10973;46.706;12.340;2022-07-06T03:31:31;87914.28;;;14.45;54.67
21623;BME280;10973;46.706;12.340;2022-07-06T03:34:08;87922.59;;;14.47;54.74
21623;BME280;10973;46.706;12.340;2022-07-06T03:36:35;87928.28;;;14.49;54.63
21623;BME280;10973;46.706;12.340;2022-07-06T03:39:06;87929.03;;;14.46;54.27
21623;BME280;10973;46.706;12.340;2022-07-06T03:41:34;87919.56;;;14.41;54.27
21623;BME280;10973;46.706;12.340;2022-07-06T03:44:03;87921.81;;;14.43;54.14
21623;BME280;10973;46.706;12.340;2022-07-06T03:46:30;87926.75;;;14.41;54.40
21623;BME280;10973;46.706;12.340;2022-07-06T03:48:58;87919.94;;;14.40;54.34
21623;BME280;10973;46.706;12.340;2022-07-06T03:51:25;87924.50;;;14.39;54.44
21623;BME280;10973;46.706;12.340;2022-07-06T03:53:53;87925.25;;;14.36;54.64
21623;BME280;10973;46.706;12.340;2022-07-06T03:56:23;87927.53;;;14.38;54.74
21623;BME280;10973;46.706;12.340;2022-07-06T03:58:51;87921.81;;;14.36;54.83
21623;BME280;10973;46.706;12.340;2022-07-06T04:04:51;87927.88;;;14.25;54.72
21623;BME280;10973;46.706;12.340;2022-07-06T04:07:18;87918.03;;;14.26;54.69
21623;BME280;10973;46.706;12.340;2022-07-06T04:09:46;87920.69;;;14.26;54.78
21623;BME280;10973;46.706;12.340;2022-07-06T04:12:13;87928.25;;;14.24;54.80
21623;BME280;10973;46.706;12.340;2022-07-06T04:14:44;87924.09;;;14.19;54.94
21623;BME280;10973;46.706;12.340;2022-07-06T04:17:11;87927.09;;;14.14;55.27
21623;BME280;10973;46.706;12.340;2022-07-06T04:19:39;87924.09;;;14.19;55.02
21623;BME280;10973;46.706;12.340;2022-07-06T04:22:07;87931.28;;;14.19;54.79
21623;BME280;10973;46.706;12.340;2022-07-06T04:24:36;87927.84;;;14.22;54.74
21623;BME280;10973;46.706;12.340;2022-07-06T04:30:55;87946.41;;;14.11;55.50
21623;BME280;10973;46.706;12.340;2022-07-06T04:33:22;87949.44;;;14.10;55.65
21623;BME280;10973;46.706;12.340;2022-07-06T04:43:04;87947.53;;;14.03;55.89
21623;BME280;10973;46.706;12.340;2022-07-06T04:45:32;87949.03;;;14.04;56.11
21623;BME280;10973;46.706;12.340;2022-07-06T04:47:59;87942.97;;;14.04;56.19
21623;BME280;10973;46.706;12.340;2022-07-06T04:50:27;87946.41;;;14.08;56.14
21623;BME280;10973;46.706;12.340;2022-07-06T04:59:36;87948.31;;;14.14;56.14
21623;BME280;10973;46.706;12.340;2022-07-06T05:05:45;87949.06;;;14.22;56.23
21623;BME280;10973;46.706;12.340;2022-07-06T05:08:13;87944.56;;;14.29;56.18
21623;BME280;10973;46.706;12.340;2022-07-06T05:10:40;87950.25;;;14.35;56.10
21623;BME280;10973;46.706;12.340;2022-07-06T05:13:08;87953.28;;;14.41;56.40
21623;BME280;10973;46.706;12.340;2022-07-06T05:15:36;87950.25;;;14.46;56.24
21623;BME280;10973;46.706;12.340;2022-07-06T05:18:03;87947.22;;;14.47;55.95
21623;BME280;10973;46.706;12.340;2022-07-06T05:20:58;87944.97;;;14.49;55.95
21623;BME280;10973;46.706;12.340;2022-07-06T05:24:00;87951.78;;;14.54;56.08
21623;BME280;10973;46.706;12.340;2022-07-06T05:26:35;87950.25;;;14.53;55.98
21623;BME280;10973;46.706;12.340;2022-07-06T05:29:03;87949.50;;;14.56;55.91
21623;BME280;10973;46.706;12.340;2022-07-06T05:31:31;87951.78;;;14.57;56.26
21623;BME280;10973;46.706;12.340;2022-07-06T05:33:58;87948.00;;;14.58;56.46
21623;BME280;10973;46.706;12.340;2022-07-06T05:36:29;87946.44;;;14.61;56.41
21623;BME280;10973;46.706;12.340;2022-07-06T05:38:57;87947.97;;;14.65;56.22
21623;BME280;10973;46.706;12.340;2022-07-06T05:41:25;87947.22;;;14.72;56.22
21623;BME280;10973;46.706;12.340;2022-07-06T05:43:58;87951.38;;;14.80;55.98
21623;BME280;10973;46.706;12.340;2022-07-06T05:46:25;87942.66;;;14.86;55.86
21623;BME280;10973;46.706;12.340;2022-07-06T05:48:53;87942.66;;;14.90;55.82
21623;BME280;10973;46.706;12.340;2022-07-06T05:51:20;87947.94;;;14.97;56.11
21623;BME280;10973;46.706;12.340;2022-07-06T05:53:47;87944.16;;;15.05;56.27
21623;BME280;10973;46.706;12.340;2022-07-06T05:56:15;87948.28;;;15.13;55.95
21623;BME280;10973;46.706;12.340;2022-07-06T05:58:42;87945.63;;;15.24;56.08
21623;BME280;10973;46.706;12.340;2022-07-06T06:01:10;87946.00;;;15.33;56.02
21623;BME280;10973;46.706;12.340;2022-07-06T06:03:37;87945.97;;;15.40;55.72
21623;BME280;10973;46.706;12.340;2022-07-06T06:06:05;87930.03;;;15.50;55.53
21623;BME280;10973;46.706;12.340;2022-07-06T06:08:32;87934.16;;;15.58;55.01
21623;BME280;10973;46.706;12.340;2022-07-06T06:11:00;87936.78;;;15.69;54.78
21623;BME280;10973;46.706;12.340;2022-07-06T06:13:31;87929.91;;;15.79;54.53
21623;BME280;10973;46.706;12.340;2022-07-06T06:15:58;87921.88;;;15.89;53.84
21623;BME280;10973;46.706;12.340;2022-07-06T06:18:26;87927.13;;;16.00;53.87
21623;BME280;10973;46.706;12.340;2022-07-06T06:20:54;87925.97;;;16.08;53.61
21623;BME280;10973;46.706;12.340;2022-07-06T06:23:21;87929.31;;;16.19;53.40
21623;BME280;10973;46.706;12.340;2022-07-06T06:25:48;87933.06;;;16.28;53.14
21623;BME280;10973;46.706;12.340;2022-07-06T06:28:16;87921.22;;;16.36;52.76
21623;BME280;10973;46.706;12.340;2022-07-06T06:30:43;87924.22;;;16.42;52.40
21623;BME280;10973;46.706;12.340;2022-07-06T06:33:19;87921.50;;;16.53;51.85
21623;BME280;10973;46.706;12.340;2022-07-06T06:35:52;87919.16;;;16.62;51.58
21623;BME280;10973;46.706;12.340;2022-07-06T06:38:22;87921.00;;;16.72;51.45
21623;BME280;10973;46.706;12.340;2022-07-06T06:40:50;87918.63;;;16.81;51.35
21623;BME280;10973;46.706;12.340;2022-07-06T06:43:17;87912.84;;;16.89;51.39
21623;BME280;10973;46.706;12.340;2022-07-06T06:45:45;87915.81;;;16.98;51.67
21623;BME280;10973;46.706;12.340;2022-07-06T06:48:12;87911.94;;;17.06;51.76
21623;BME280;10973;46.706;12.340;2022-07-06T06:50:44;87912.56;;;17.18;51.45
21623;BME280;10973;46.706;12.340;2022-07-06T06:53:12;87910.97;;;17.27;51.05
21623;BME280;10973;46.706;12.340;2022-07-06T06:55:39;87916.16;;;17.38;50.56
21623;BME280;10973;46.706;12.340;2022-07-06T06:58:07;87910.03;;;17.44;48.97
21623;BME280;10973;46.706;12.340;2022-07-06T07:00:34;87908.06;;;17.52;48.12
21623;BME280;10973;46.706;12.340;2022-07-06T07:03:01;87917.09;;;17.61;46.71
21623;BME280;10973;46.706;12.340;2022-07-06T07:05:29;87913.66;;;17.64;46.33
21623;BME280;10973;46.706;12.340;2022-07-06T07:07:56;87903.63;;;17.72;45.88
21623;BME280;10973;46.706;12.340;2022-07-06T07:10:32;87909.22;;;17.85;45.64
21623;BME280;10973;46.706;12.340;2022-07-06T07:13:00;87901.50;;;17.90;46.39
21623;BME280;10973;46.706;12.340;2022-07-06T07:15:28;87900.28;;;17.98;46.43
21623;BME280;10973;46.706;12.340;2022-07-06T07:17:55;87901.69;;;18.06;45.66
21623;BME280;10973;46.706;12.340;2022-07-06T07:20:23;87901.22;;;18.15;45.35
21623;BME280;10973;46.706;12.340;2022-07-06T07:22:51;87900.72;;;18.23;44.74
21623;BME280;10973;46.706;12.340;2022-07-06T07:25:19;87896.84;;;18.28;44.18
21623;BME280;10973;46.706;12.340;2022-07-06T07:27:47;87903.56;;;18.36;44.20
21623;BME280;10973;46.706;12.340;2022-07-06T07:30:14;87900.81;;;18.43;44.08
21623;BME280;10973;46.706;12.340;2022-07-06T07:32:42;87898.13;;;18.43;44.67
21623;BME280;10973;46.706;12.340;2022-07-06T07:35:09;87891.56;;;18.51;45.49
21623;BME280;10973;46.706;12.340;2022-07-06T07:37:37;87891.81;;;18.60;45.60
21623;BME280;10973;46.706;12.340;2022-07-06T07:40:05;87891.31;;;18.69;45.23
21623;BME280;10973;46.706;12.340;2022-07-06T07:42:33;87889.63;;;18.78;44.78
21623;BME280;10973;46.706;12.340;2022-07-06T07:45:00;87882.25;;;18.86;45.38
21623;BME280;10973;46.706;12.340;2022-07-06T07:47:27;87883.69;;;18.90;43.52
21623;BME280;10973;46.706;12.340;2022-07-06T07:49:55;87884.41;;;18.94;43.50
21623;BME280;10973;46.706;12.340;2022-07-06T07:52:23;87884.69;;;19.00;44.00
21623;BME280;10973;46.706;12.340;2022-07-06T07:54:50;87879.16;;;19.10;43.31
21623;BME280;10973;46.706;12.340;2022-07-06T07:57:38;87877.94;;;19.15;43.40
21623;BME280;10973;46.706;12.340;2022-07-06T08:00:07;87875.47;;;19.24;42.04
21623;BME280;10973;46.706;12.340;2022-07-06T08:02:34;87877.63;;;19.33;42.56
21623;BME280;10973;46.706;12.340;2022-07-06T08:05:02;87881.03;;;19.33;40.00
21623;BME280;10973;46.706;12.340;2022-07-06T08:07:30;87878.28;;;19.40;38.82
21623;BME280;10973;46.706;12.340;2022-07-06T08:09:58;87876.22;;;19.48;38.29
21623;BME280;10973;46.706;12.340;2022-07-06T08:12:25;87862.06;;;19.51;38.03
21623;BME280;10973;46.706;12.340;2022-07-06T08:14:53;87868.09;;;19.55;34.82
21623;BME280;10973;46.706;12.340;2022-07-06T08:17:21;87865.69;;;19.60;35.65
21623;BME280;10973;46.706;12.340;2022-07-06T08:19:48;87863.63;;;19.68;35.23
21623;BME280;10973;46.706;12.340;2022-07-06T08:22:16;87863.00;;;19.80;35.02
21623;BME280;10973;46.706;12.340;2022-07-06T08:24:43;87863.34;;;19.82;33.06
21623;BME280;10973;46.706;12.340;2022-07-06T08:27:11;87864.66;;;19.93;32.90
21623;BME280;10973;46.706;12.340;2022-07-06T08:29:39;87860.97;;;20.04;33.57
21623;BME280;10973;46.706;12.340;2022-07-06T08:32:06;87857.81;;;20.09;33.92
21623;BME280;10973;46.706;12.340;2022-07-06T08:34:53;87856.03;;;20.22;34.44
21623;BME280;10973;46.706;12.340;2022-07-06T08:37:21;87865.00;;;20.31;34.44
21623;BME280;10973;46.706;12.340;2022-07-06T08:39:48;87864.53;;;20.36;33.33
21623;BME280;10973;46.706;12.340;2022-07-06T08:42:16;87856.75;;;20.42;32.64
21623;BME280;10973;46.706;12.340;2022-07-06T08:44:45;87864.22;;;20.50;33.33
21623;BME280;10973;46.706;12.340;2022-07-06T08:47:14;87865.22;;;20.56;31.25
21623;BME280;10973;46.706;12.340;2022-07-06T08:49:43;87855.53;;;20.63;31.38
21623;BME280;10973;46.706;12.340;2022-07-06T08:52:11;87859.97;;;20.69;30.30
21623;BME280;10973;46.706;12.340;2022-07-06T08:54:39;87857.47;;;20.78;31.25
21623;BME280;10973;46.706;12.340;2022-07-06T08:57:07;87851.94;;;20.85;30.90
21623;BME280;10973;46.706;12.340;2022-07-06T08:59:34;87849.06;;;20.92;31.18
21623;BME280;10973;46.706;12.340;2022-07-06T09:02:04;87850.91;;;20.95;30.15
21623;BME280;10973;46.706;12.340;2022-07-06T09:04:35;87852.09;;;20.94;30.51
21623;BME280;10973;46.706;12.340;2022-07-06T09:07:03;87859.94;;;21.01;31.25
21623;BME280;10973;46.706;12.340;2022-07-06T09:09:31;87859.91;;;21.05;31.05
21623;BME280;10973;46.706;12.340;2022-07-06T09:11:58;87856.38;;;21.08;30.47
21623;BME280;10973;46.706;12.340;2022-07-06T09:14:30;87861.97;;;21.13;29.80
21623;BME280;10973;46.706;12.340;2022-07-06T09:17:04;87858.38;;;21.20;30.47
21623;BME280;10973;46.706;12.340;2022-07-06T09:19:34;87865.16;;;21.24;30.56
21623;BME280;10973;46.706;12.340;2022-07-06T09:22:03;87857.34;;;21.30;29.65
21623;BME280;10973;46.706;12.340;2022-07-06T09:24:31;87862.28;;;21.31;30.38
21623;BME280;10973;46.706;12.340;2022-07-06T09:26:59;87863.28;;;21.38;29.77
21623;BME280;10973;46.706;12.340;2022-07-06T09:29:31;87860.84;;;21.43;28.95
21623;BME280;10973;46.706;12.340;2022-07-06T09:32:03;87859.56;;;21.48;28.55
21623;BME280;10973;46.706;12.340;2022-07-06T09:37:08;87864.75;;;21.55;28.45
21623;BME280;10973;46.706;12.340;2022-07-06T09:39:36;87860.81;;;21.59;29.02
21623;BME280;10973;46.706;12.340;2022-07-06T09:42:05;87869.94;;;21.62;29.00
21623;BME280;10973;46.706;12.340;2022-07-06T09:44:35;87870.09;;;21.71;28.96
21623;BME280;10973;46.706;12.340;2022-07-06T09:47:07;87856.81;;;21.80;28.36
21623;BME280;10973;46.706;12.340;2022-07-06T09:49:37;87859.06;;;21.81;28.67
21623;BME280;10973;46.706;12.340;2022-07-06T09:52:08;87863.19;;;21.86;28.27
21623;BME280;10973;46.706;12.340;2022-07-06T09:54:37;87857.28;;;21.91;28.52
21623;BME280;10973;46.706;12.340;2022-07-06T09:57:06;87863.63;;;21.97;27.95
21623;BME280;10973;46.706;12.340;2022-07-06T09:59:36;87861.50;;;22.05;27.05
21623;BME280;10973;46.706;12.340;2022-07-06T10:02:07;87856.38;;;22.10;27.59
21623;BME280;10973;46.706;12.340;2022-07-06T10:04:35;87863.69;;;22.10;27.62
21623;BME280;10973;46.706;12.340;2022-07-06T10:07:04;87851.00;;;22.10;26.48
21623;BME280;10973;46.706;12.340;2022-07-06T10:09:31;87857.25;;;22.20;27.68
21623;BME280;10973;46.706;12.340;2022-07-06T10:12:01;87853.69;;;22.10;27.52
21623;BME280;10973;46.706;12.340;2022-07-06T10:14:33;87851.66;;;22.27;27.53
21623;BME280;10973;46.706;12.340;2022-07-06T10:17:03;87862.66;;;22.32;27.74
21623;BME280;10973;46.706;12.340;2022-07-06T10:19:32;87855.13;;;22.40;25.60
21623;BME280;10973;46.706;12.340;2022-07-06T10:22:04;87851.06;;;22.48;26.28
21623;BME280;10973;46.706;12.340;2022-07-06T10:24:32;87856.22;;;22.55;27.71
21623;BME280;10973;46.706;12.340;2022-07-06T10:26:59;87862.22;;;22.59;27.18
21623;BME280;10973;46.706;12.340;2022-07-06T10:29:28;87851.38;;;22.62;24.44
21623;BME280;10973;46.706;12.340;2022-07-06T10:31:57;87843.88;;;22.70;26.62
21623;BME280;10973;46.706;12.340;2022-07-06T10:34:26;87853.00;;;22.73;27.96
21623;BME280;10973;46.706;12.340;2022-07-06T10:36:54;87845.19;;;22.78;26.89
21623;BME280;10973;46.706;12.340;2022-07-06T10:39:36;87850.75;;;22.84;26.49
21623;BME280;10973;46.706;12.340;2022-07-06T10:42:04;87845.59;;;22.89;26.72
21623;BME280;10973;46.706;12.340;2022-07-06T10:44:31;87843.84;;;22.95;27.40
21623;BME280;10973;46.706;12.340;2022-07-06T10:46:59;87839.34;;;23.05;26.70
21623;BME280;10973;46.706;12.340;2022-07-06T10:49:27;87838.03;;;23.09;26.54
21623;BME280;10973;46.706;12.340;2022-07-06T10:52:17;87831.13;;;23.21;27.74
21623;BME280;10973;46.706;12.340;2022-07-06T10:54:46;87841.53;;;23.31;27.76
21623;BME280;10973;46.706;12.340;2022-07-06T10:57:14;87835.94;;;23.38;25.69
21623;BME280;10973;46.706;12.340;2022-07-06T11:00:02;87825.28;;;23.48;26.06
21623;BME280;10973;46.706;12.340;2022-07-06T11:02:38;87830.09;;;23.53;25.56
21623;BME280;10973;46.706;12.340;2022-07-06T11:05:11;87826.72;;;23.61;26.04
21623;BME280;10973;46.706;12.340;2022-07-06T11:08:18;87829.97;;;23.56;24.76
21623;BME280;10973;46.706;12.340;2022-07-06T11:10:49;87829.81;;;23.72;24.98
21623;BME280;10973;46.706;12.340;2022-07-06T11:13:29;87819.66;;;23.76;24.32
21623;BME280;10973;46.706;12.340;2022-07-06T11:16:05;87824.06;;;23.83;24.37
21623;BME280;10973;46.706;12.340;2022-07-06T11:18:40;87825.00;;;23.89;24.22
21623;BME280;10973;46.706;12.340;2022-07-06T11:21:23;87812.34;;;23.98;24.86
21623;BME280;10973;46.706;12.340;2022-07-06T11:23:51;87812.53;;;24.04;23.96
21623;BME280;10973;46.706;12.340;2022-07-06T11:26:18;87819.38;;;24.18;24.41
21623;BME280;10973;46.706;12.340;2022-07-06T11:28:47;87818.75;;;24.14;23.58
21623;BME280;10973;46.706;12.340;2022-07-06T11:31:15;87812.28;;;24.33;24.39
21623;BME280;10973;46.706;12.340;2022-07-06T11:33:46;87811.13;;;24.43;23.36
21623;BME280;10973;46.706;12.340;2022-07-06T11:36:19;87815.22;;;24.56;24.09
21623;BME280;10973;46.706;12.340;2022-07-06T11:38:49;87806.41;;;24.65;23.42
21623;BME280;10973;46.706;12.340;2022-07-06T11:41:18;87816.50;;;24.73;23.64
21623;BME280;10973;46.706;12.340;2022-07-06T11:43:47;87804.88;;;24.86;23.38
21623;BME280;10973;46.706;12.340;2022-07-06T11:46:31;87805.38;;;25.02;22.19
21623;BME280;10973;46.706;12.340;2022-07-06T11:49:06;87807.34;;;25.11;22.80
21623;BME280;10973;46.706;12.340;2022-07-06T11:51:36;87797.50;;;25.17;22.38
21623;BME280;10973;46.706;12.340;2022-07-06T11:54:13;87806.63;;;25.37;22.98
21623;BME280;10973;46.706;12.340;2022-07-06T11:56:51;87805.03;;;25.49;22.80
21623;BME280;10973;46.706;12.340;2022-07-06T11:59:28;87792.78;;;25.66;22.53
21623;BME280;10973;46.706;12.340;2022-07-06T12:02:10;87804.00;;;25.74;22.72
21623;BME280;10973;46.706;12.340;2022-07-06T12:04:40;87799.34;;;25.83;22.23
21623;BME280;10973;46.706;12.340;2022-07-06T12:07:10;87798.63;;;25.83;21.05
21623;BME280;10973;46.706;12.340;2022-07-06T12:09:42;87795.00;;;26.04;21.65
21623;BME280;10973;46.706;12.340;2022-07-06T12:12:11;87781.78;;;26.15;20.11
21623;BME280;10973;46.706;12.340;2022-07-06T12:14:40;87785.53;;;26.17;21.33
21623;BME280;10973;46.706;12.340;2022-07-06T12:17:10;87782.97;;;26.32;23.41
21623;BME280;10973;46.706;12.340;2022-07-06T12:19:40;87777.50;;;26.50;23.15
21623;BME280;10973;46.706;12.340;2022-07-06T12:22:08;87775.09;;;26.52;22.15
21623;BME280;10973;46.706;12.340;2022-07-06T12:24:42;87769.63;;;26.70;21.49
21623;BME280;10973;46.706;12.340;2022-07-06T12:29:39;87775.84;;;26.95;21.88
21623;BME280;10973;46.706;12.340;2022-07-06T12:32:14;87779.84;;;27.08;21.38
21623;BME280;10973;46.706;12.340;2022-07-06T12:34:41;87772.56;;;27.23;20.65
21623;BME280;10973;46.706;12.340;2022-07-06T12:37:10;87764.81;;;27.31;20.83
21623;BME280;10973;46.706;12.340;2022-07-06T12:39:46;87771.28;;;27.33;20.48
21623;BME280;10973;46.706;12.340;2022-07-06T12:42:16;87769.31;;;27.43;20.93
21623;BME280;10973;46.706;12.340;2022-07-06T12:44:49;87766.81;;;27.54;19.48
21623;BME280;10973;46.706;12.340;2022-07-06T12:47:22;87764.38;;;27.56;19.86
21623;BME280;10973;46.706;12.340;2022-07-06T12:50:09;87764.22;;;27.60;20.59
21623;BME280;10973;46.706;12.340;2022-07-06T12:52:37;87770.22;;;27.64;20.45
21623;BME280;10973;46.706;12.340;2022-07-06T12:55:06;87767.50;;;27.64;19.89
21623;BME280;10973;46.706;12.340;2022-07-06T12:57:48;87771.34;;;27.72;19.36
21623;BME280;10973;46.706;12.340;2022-07-06T13:00:17;87758.34;;;27.61;19.05
21623;BME280;10973;46.706;12.340;2022-07-06T13:02:48;87761.88;;;27.52;20.55
21623;BME280;10973;46.706;12.340;2022-07-06T13:05:35;87768.41;;;27.61;20.73
21623;BME280;10973;46.706;12.340;2022-07-06T13:08:03;87762.50;;;27.71;20.10
21623;BME280;10973;46.706;12.340;2022-07-06T13:10:30;87767.16;;;27.71;19.47
21623;BME280;10973;46.706;12.340;2022-07-06T13:12:58;87760.47;;;27.57;20.11
21623;BME280;10973;46.706;12.340;2022-07-06T13:15:25;87761.97;;;27.58;20.57
21623;BME280;10973;46.706;12.340;2022-07-06T13:17:53;87762.94;;;27.70;21.13
21623;BME280;10973;46.706;12.340;2022-07-06T13:20:20;87748.69;;;27.84;20.13
21623;BME280;10973;46.706;12.340;2022-07-06T13:22:47;87759.34;;;27.87;19.75
21623;BME280;10973;46.706;12.340;2022-07-06T13:25:14;87754.84;;;27.84;19.48
21623;BME280;10973;46.706;12.340;2022-07-06T13:27:42;87753.69;;;28.00;19.60
21623;BME280;10973;46.706;12.340;2022-07-06T13:30:10;87749.59;;;28.04;20.29
21623;BME280;10973;46.706;12.340;2022-07-06T13:33:06;87746.44;;;27.97;19.51
21623;BME280;10973;46.706;12.340;2022-07-06T13:35:33;87750.00;;;27.88;18.18
21623;BME280;10973;46.706;12.340;2022-07-06T13:38:01;87740.44;;;27.78;18.70
21623;BME280;10973;46.706;12.340;2022-07-06T13:40:28;87744.47;;;27.83;20.62
21623;BME280;10973;46.706;12.340;2022-07-06T13:42:55;87737.50;;;27.91;19.57
21623;BME280;10973;46.706;12.340;2022-07-06T13:45:22;87736.94;;;27.87;19.10
21623;BME280;10973;46.706;12.340;2022-07-06T13:47:49;87730.47;;;27.84;19.13
21623;BME280;10973;46.706;12.340;2022-07-06T13:50:17;87730.19;;;27.82;19.78
21623;BME280;10973;46.706;12.340;2022-07-06T13:52:44;87726.94;;;27.93;20.72
21623;BME280;10973;46.706;12.340;2022-07-06T13:55:11;87729.41;;;28.20;20.59
21623;BME280;10973;46.706;12.340;2022-07-06T13:57:39;87732.69;;;28.39;19.89
21623;BME280;10973;46.706;12.340;2022-07-06T14:00:07;87730.91;;;28.36;19.36
21623;BME280;10973;46.706;12.340;2022-07-06T14:02:35;87726.78;;;28.40;20.15
21623;BME280;10973;46.706;12.340;2022-07-06T14:05:02;87725.94;;;28.49;19.82
21623;BME280;10973;46.706;12.340;2022-07-06T14:07:30;87727.91;;;28.63;19.40
21623;BME280;10973;46.706;12.340;2022-07-06T14:09:57;87718.34;;;28.82;18.96
21623;BME280;10973;46.706;12.340;2022-07-06T14:12:25;87731.69;;;29.00;17.54
21623;BME280;10973;46.706;12.340;2022-07-06T14:14:53;87714.13;;;29.16;18.56
21623;BME280;10973;46.706;12.340;2022-07-06T14:17:20;87716.84;;;29.30;19.36
21623;BME280;10973;46.706;12.340;2022-07-06T14:19:49;87710.56;;;29.44;18.90
21623;BME280;10973;46.706;12.340;2022-07-06T14:22:16;87709.16;;;29.49;17.67
21623;BME280;10973;46.706;12.340;2022-07-06T14:24:43;87709.56;;;29.62;18.57
21623;BME280;10973;46.706;12.340;2022-07-06T14:27:11;87702.41;;;29.64;18.04
21623;BME280;10973;46.706;12.340;2022-07-06T14:29:38;87702.69;;;29.46;18.48
21623;BME280;10973;46.706;12.340;2022-07-06T14:32:06;87696.94;;;29.39;18.44
21623;BME280;10973;46.706;12.340;2022-07-06T14:34:33;87694.56;;;29.26;17.92
21623;BME280;10973;46.706;12.340;2022-07-06T14:37:00;87698.25;;;29.43;18.59
21623;BME280;10973;46.706;12.340;2022-07-06T14:39:28;87689.81;;;29.61;17.67
21623;BME280;10973;46.706;12.340;2022-07-06T14:41:55;87691.41;;;29.74;18.43
21623;BME280;10973;46.706;12.340;2022-07-06T14:44:22;87695.44;;;29.78;17.81
21623;BME280;10973;46.706;12.340;2022-07-06T14:46:49;87691.97;;;29.98;18.32
21623;BME280;10973;46.706;12.340;2022-07-06T14:49:17;87690.88;;;30.15;17.63